createdAt,value
2019-06-27T00:01:56.880Z,2.13
2019-06-27T00:04:01.407Z,2.30
2019-06-27T00:06:05.924Z,2.23
2019-06-27T00:08:10.299Z,1.60
2019-06-27T00:10:17.186Z,2.07
2019-06-27T00:12:22.102Z,3.00
2019-06-27T00:14:26.862Z,2.20
2019-06-27T00:16:31.585Z,2.87
2019-06-27T00:18:36.428Z,2.70
2019-06-27T00:20:41.799Z,3.63
2019-06-27T00:22:46.781Z,2.97
2019-06-27T00:24:51.943Z,2.20
2019-06-27T00:26:57.720Z,3.73
2019-06-27T00:29:02.868Z,3.10
2019-06-27T00:31:07.290Z,2.73
2019-06-27T00:33:14.667Z,3.57
2019-06-27T00:35:19.828Z,2.70
2019-06-27T00:37:24.326Z,2.90
2019-06-27T00:39:28.735Z,3.70
2019-06-27T00:41:33.421Z,3.00
2019-06-27T00:43:37.882Z,3.47
2019-06-27T00:45:42.637Z,3.50
2019-06-27T00:47:46.984Z,4.10
2019-06-27T00:49:51.803Z,3.70
2019-06-27T00:51:56.628Z,4.33
2019-06-27T00:54:01.011Z,4.20
2019-06-27T00:56:05.791Z,4.03
2019-06-27T00:58:10.163Z,5.67
2019-06-27T01:00:16.640Z,4.07
2019-06-27T01:02:21.102Z,4.03
2019-06-27T01:04:25.942Z,4.17
2019-06-27T01:06:30.678Z,3.37
2019-06-27T01:08:35.952Z,4.10
2019-06-27T01:10:40.422Z,4.00
2019-06-27T01:12:44.831Z,4.80
2019-06-27T01:14:49.561Z,4.00
2019-06-27T01:16:54.306Z,4.20
2019-06-27T01:18:59.442Z,3.80
2019-06-27T01:21:03.953Z,3.60
2019-06-27T01:23:09.698Z,5.07
2019-06-27T01:25:14.431Z,3.37
2019-06-27T01:27:29.512Z,3.90
2019-06-27T01:29:25.282Z,3.13
2019-06-27T01:31:30.110Z,3.60
2019-06-27T01:33:34.590Z,3.23
2019-06-27T01:35:39.086Z,3.30
2019-06-27T01:37:43.906Z,3.50
2019-06-27T01:39:48.777Z,3.70
2019-06-27T01:41:53.260Z,3.27
2019-06-27T01:43:57.781Z,3.40
2019-06-27T01:46:03.564Z,3.97
2019-06-27T01:48:08.067Z,3.27
2019-06-27T01:50:15.151Z,3.00
2019-06-27T01:52:20.037Z,3.53
2019-06-27T01:54:24.899Z,4.10
2019-06-27T01:56:29.414Z,3.37
2019-06-27T01:58:34.248Z,2.90
2019-06-27T02:00:39.067Z,3.37
2019-06-27T02:02:43.548Z,3.30
2019-06-27T02:04:48.346Z,3.40
2019-06-27T02:06:52.986Z,3.80
2019-06-27T02:08:57.406Z,3.47
2019-06-27T02:11:02.178Z,3.27
2019-06-27T02:13:06.689Z,3.60
2019-06-27T02:15:15.480Z,2.33
2019-06-27T02:17:20.023Z,3.40
2019-06-27T02:19:25.147Z,3.10
2019-06-27T02:21:29.852Z,3.10
2019-06-27T02:23:34.304Z,3.53
2019-06-27T02:25:40.155Z,3.87
2019-06-27T02:27:45.419Z,3.33
2019-06-27T02:29:51.306Z,3.60
2019-06-27T02:31:55.771Z,2.30
2019-06-27T02:34:00.610Z,3.50
2019-06-27T02:36:05.649Z,2.70
2019-06-27T02:38:10.087Z,3.33
2019-06-27T02:40:14.803Z,3.60
2019-06-27T02:42:19.300Z,3.73
2019-06-27T02:44:26.428Z,3.17
2019-06-27T02:46:30.900Z,3.57
2019-06-27T02:48:35.737Z,3.60
2019-06-27T02:50:40.812Z,4.10
2019-06-27T02:52:45.959Z,3.30
2019-06-27T02:54:50.375Z,4.13
2019-06-27T02:56:54.858Z,4.00
2019-06-27T02:58:59.658Z,3.53
2019-06-27T03:01:04.155Z,4.10
2019-06-27T03:03:08.664Z,4.77
2019-06-27T03:05:13.282Z,4.87
2019-06-27T03:07:17.767Z,3.80
2019-06-27T03:09:22.530Z,4.50
2019-06-27T03:11:27.031Z,4.77
2019-06-27T03:13:31.898Z,4.60
2019-06-27T03:15:36.371Z,4.67
2019-06-27T03:17:40.758Z,4.23
2019-06-27T03:19:45.542Z,4.83
2019-06-27T03:21:50.046Z,3.97
2019-06-27T03:23:54.604Z,4.17
2019-06-27T03:25:59.420Z,4.23
2019-06-27T03:28:05.463Z,4.93
2019-06-27T03:30:10.112Z,4.77
2019-06-27T03:32:14.682Z,4.40
2019-06-27T03:34:19.123Z,3.63
2019-06-27T03:36:23.602Z,4.63
2019-06-27T03:38:28.147Z,4.23
2019-06-27T03:40:32.664Z,4.70
2019-06-27T03:42:37.685Z,3.80
2019-06-27T03:44:42.202Z,5.00
2019-06-27T03:46:46.612Z,3.90
2019-06-27T03:48:51.066Z,4.00
2019-06-27T03:50:56.394Z,4.00
2019-06-27T03:53:01.027Z,3.73
2019-06-27T03:55:05.576Z,3.80
2019-06-27T03:57:10.457Z,3.20
2019-06-27T03:59:14.881Z,3.27
2019-06-27T04:01:19.336Z,3.67
2019-06-27T04:03:24.022Z,3.00
2019-06-27T04:05:28.767Z,3.60
2019-06-27T04:07:33.259Z,3.87
2019-06-27T04:09:38.325Z,4.03
2019-06-27T04:11:42.912Z,3.97
2019-06-27T04:13:47.349Z,3.80
2019-06-27T04:15:52.190Z,4.33
2019-06-27T04:17:56.595Z,4.23
2019-06-27T04:20:01.025Z,3.87
2019-06-27T04:22:05.404Z,4.90
2019-06-27T04:24:10.105Z,4.20
2019-06-27T04:26:14.679Z,4.60
2019-06-27T04:28:20.490Z,4.40
2019-06-27T04:30:25.306Z,4.20
2019-06-27T04:32:30.275Z,3.57
2019-06-27T04:34:34.899Z,3.80
2019-06-27T04:36:39.483Z,4.20
2019-06-27T04:38:44.226Z,4.03
2019-06-27T04:40:49.384Z,4.20
2019-06-27T04:42:53.832Z,4.50
2019-06-27T04:44:58.663Z,3.40
2019-06-27T04:47:03.539Z,3.70
2019-06-27T04:49:13.003Z,4.63
2019-06-27T04:51:15.586Z,5.00
2019-06-27T04:53:20.459Z,4.00
2019-06-27T04:55:24.978Z,5.40
2019-06-27T04:57:29.556Z,4.47
2019-06-27T04:59:51.773Z,4.97
2019-06-27T05:01:40.946Z,4.47
2019-06-27T05:03:45.739Z,3.80
2019-06-27T05:05:50.328Z,3.90
2019-06-27T05:07:54.713Z,3.33
2019-06-27T05:09:59.094Z,4.10
2019-06-27T05:12:04.004Z,2.93
2019-06-27T05:14:08.515Z,3.60
2019-06-27T05:16:13.149Z,3.97
2019-06-27T05:18:18.010Z,3.57
2019-06-27T05:20:22.905Z,3.27
2019-06-27T05:22:27.480Z,3.97
2019-06-27T05:24:31.923Z,3.87
2019-06-27T05:26:36.414Z,3.77
2019-06-27T05:28:43.878Z,4.47
2019-06-27T05:30:51.391Z,4.30
2019-06-27T05:32:55.257Z,4.17
2019-06-27T05:34:59.875Z,4.30
2019-06-27T05:37:04.788Z,4.03
2019-06-27T05:39:09.228Z,3.50
2019-06-27T05:41:13.720Z,3.50
2019-06-27T05:43:18.250Z,4.20
2019-06-27T05:45:22.733Z,4.47
2019-06-27T05:47:27.438Z,4.00
2019-06-27T05:49:32.131Z,2.97
2019-06-27T05:51:36.492Z,3.40
2019-06-27T05:53:40.889Z,2.70
2019-06-27T05:55:45.330Z,3.40
2019-06-27T05:57:49.707Z,3.97
2019-06-27T05:59:54.187Z,2.70
2019-06-27T06:01:59.007Z,4.03
2019-06-27T06:04:03.448Z,3.37
2019-06-27T06:06:09.029Z,3.27
2019-06-27T06:08:13.524Z,3.03
2019-06-27T06:10:17.973Z,3.00
2019-06-27T06:12:22.744Z,3.30
2019-06-27T06:14:27.300Z,3.40
2019-06-27T06:16:32.116Z,3.07
2019-06-27T06:18:36.713Z,3.43
2019-06-27T06:20:41.270Z,3.53
2019-06-27T06:22:46.153Z,3.37
2019-06-27T06:24:50.787Z,3.33
2019-06-27T06:26:55.341Z,3.30
2019-06-27T06:29:00.434Z,3.50
2019-06-27T06:31:05.978Z,3.10
2019-06-27T06:33:10.535Z,2.97
2019-06-27T06:35:15.092Z,2.80
2019-06-27T06:37:19.650Z,3.23
2019-06-27T06:39:24.651Z,3.60
2019-06-27T06:41:29.092Z,3.17
2019-06-27T06:43:33.858Z,3.10
2019-06-27T06:45:38.391Z,3.20
2019-06-27T06:47:42.932Z,3.10
2019-06-27T06:49:47.373Z,3.67
2019-06-27T06:51:52.314Z,3.73
2019-06-27T06:53:57.843Z,3.77
2019-06-27T06:56:02.392Z,4.30
2019-06-27T06:58:07.280Z,4.53
2019-06-27T07:00:14.233Z,4.50
2019-06-27T07:02:18.815Z,4.37
2019-06-27T07:04:23.404Z,3.37
2019-06-27T07:06:28.558Z,3.97
2019-06-27T07:08:33.112Z,3.60
2019-06-27T07:10:38.031Z,4.20
2019-06-27T07:12:42.667Z,3.80
2019-06-27T07:14:47.464Z,4.97
2019-06-27T07:16:52.679Z,4.07
2019-06-27T07:18:57.852Z,4.20
2019-06-27T07:21:02.786Z,3.47
2019-06-27T07:23:07.740Z,4.80
2019-06-27T07:25:12.634Z,3.90
2019-06-27T07:27:17.411Z,4.50
2019-06-27T07:29:22.173Z,4.10
2019-06-27T07:31:27.913Z,4.33
2019-06-27T07:33:32.520Z,4.00
2019-06-27T07:35:37.716Z,3.57
2019-06-27T07:37:42.229Z,4.90
2019-06-27T07:39:46.742Z,4.27
2019-06-27T07:41:51.959Z,3.20
2019-06-27T07:43:56.428Z,3.60
2019-06-27T07:46:02.167Z,3.80
2019-06-27T07:48:06.691Z,4.17
2019-06-27T07:50:12.019Z,4.57
2019-06-27T07:52:16.590Z,3.90
2019-06-27T07:54:21.076Z,3.60
2019-06-27T07:56:25.433Z,2.90
2019-06-27T07:58:30.354Z,4.10
2019-06-27T08:00:36.520Z,6.03
2019-06-27T08:02:41.026Z,3.57
2019-06-27T08:04:45.568Z,3.93
2019-06-27T08:06:51.999Z,3.60
2019-06-27T08:08:57.003Z,3.43
2019-06-27T08:11:02.136Z,3.60
2019-06-27T08:13:07.246Z,3.60
2019-06-27T08:15:12.270Z,3.77
2019-06-27T08:17:16.931Z,4.00
2019-06-27T08:19:23.932Z,3.50
2019-06-27T08:21:28.534Z,3.53
2019-06-27T08:23:41.593Z,3.77
2019-06-27T08:25:41.247Z,3.07
2019-06-27T08:27:45.779Z,3.30
2019-06-27T08:29:50.292Z,4.03
2019-06-27T08:31:54.806Z,3.30
2019-06-27T08:34:04.174Z,2.90
2019-06-27T08:36:08.652Z,2.53
2019-06-27T08:38:13.112Z,2.83
2019-06-27T08:40:17.814Z,2.80
2019-06-27T08:42:22.336Z,2.90
2019-06-27T08:44:28.280Z,2.73
2019-06-27T08:46:36.494Z,4.70
2019-06-27T08:48:40.947Z,2.63
2019-06-27T08:50:45.496Z,3.67
2019-06-27T08:52:50.004Z,3.67
2019-06-27T08:54:54.502Z,3.40
2019-06-27T08:56:59.093Z,4.30
2019-06-27T08:59:03.845Z,2.70
2019-06-27T09:01:08.256Z,3.60
2019-06-27T09:03:13.209Z,3.10
2019-06-27T09:05:17.738Z,5.07
2019-06-27T09:07:22.216Z,3.60
2019-06-27T09:09:26.701Z,3.23
2019-06-27T09:11:33.855Z,4.00
2019-06-27T09:13:37.423Z,3.20
2019-06-27T09:15:42.179Z,3.30
2019-06-27T09:17:46.629Z,3.40
2019-06-27T09:19:51.988Z,3.20
2019-06-27T09:21:56.574Z,3.47
2019-06-27T09:24:01.095Z,3.20
2019-06-27T09:26:05.633Z,3.10
2019-06-27T09:28:10.117Z,2.40
2019-06-27T09:30:16.243Z,3.90
2019-06-27T09:32:25.376Z,2.60
2019-06-27T09:34:28.083Z,2.90
2019-06-27T09:36:32.903Z,2.40
2019-06-27T09:38:37.448Z,2.30
2019-06-27T09:40:42.765Z,2.93
2019-06-27T09:42:47.310Z,3.30
2019-06-27T09:44:52.134Z,3.00
2019-06-27T09:46:56.545Z,2.23
2019-06-27T09:49:01.045Z,2.43
2019-06-27T09:51:05.365Z,3.10
2019-06-27T09:53:09.902Z,2.57
2019-06-27T09:55:14.873Z,3.00
2019-06-27T09:57:20.609Z,2.70
2019-06-27T09:59:25.789Z,2.47
2019-06-27T10:01:30.200Z,1.93
2019-06-27T10:03:34.699Z,2.97
2019-06-27T10:05:39.821Z,3.33
2019-06-27T10:07:44.321Z,2.60
2019-06-27T10:09:48.650Z,3.17
2019-06-27T10:11:53.519Z,3.03
2019-06-27T10:13:58.034Z,2.70
2019-06-27T10:16:02.529Z,2.67
2019-06-27T10:18:07.668Z,2.50
2019-06-27T10:20:12.645Z,2.70
2019-06-27T10:22:17.391Z,3.33
2019-06-27T10:24:21.953Z,2.80
2019-06-27T10:26:26.555Z,3.50
2019-06-27T10:28:31.417Z,2.83
2019-06-27T10:30:36.100Z,2.47
2019-06-27T10:32:54.319Z,2.43
2019-06-27T10:34:47.805Z,2.50
2019-06-27T10:36:53.586Z,3.00
2019-06-27T10:38:58.656Z,2.37
2019-06-27T10:41:03.960Z,2.63
2019-06-27T10:43:13.526Z,3.00
2019-06-27T10:45:20.234Z,2.43
2019-06-27T10:47:25.573Z,2.87
2019-06-27T10:49:31.276Z,2.63
2019-06-27T10:51:36.129Z,2.30
2019-06-27T10:53:41.176Z,2.40
2019-06-27T10:55:46.535Z,2.83
2019-06-27T10:57:51.294Z,2.40
2019-06-27T10:59:55.837Z,2.60
2019-06-27T11:02:00.976Z,3.03
2019-06-27T11:04:06.257Z,2.07
2019-06-27T11:06:11.035Z,2.73
2019-06-27T11:08:16.650Z,2.20
2019-06-27T11:10:21.353Z,2.47
2019-06-27T11:12:25.761Z,2.60
2019-06-27T11:14:30.696Z,3.10
2019-06-27T11:16:35.635Z,2.83
2019-06-27T11:18:40.548Z,2.60
2019-06-27T11:20:45.000Z,2.17
2019-06-27T11:22:49.872Z,2.10
2019-06-27T11:24:54.345Z,2.80
2019-06-27T11:27:00.088Z,4.23
2019-06-27T11:29:04.875Z,2.80
2019-06-27T11:31:09.353Z,2.50
2019-06-27T11:33:13.856Z,2.73
2019-06-27T11:35:18.726Z,2.57
2019-06-27T11:37:23.771Z,2.33
2019-06-27T11:39:29.631Z,2.57
2019-06-27T11:41:34.478Z,2.73
2019-06-27T11:43:39.181Z,2.63
2019-06-27T11:45:43.659Z,2.70
2019-06-27T11:47:48.107Z,3.10
2019-06-27T11:49:52.572Z,2.03
2019-06-27T11:51:57.010Z,2.20
2019-06-27T11:54:01.440Z,2.40
2019-06-27T11:56:05.888Z,2.90
2019-06-27T11:58:10.303Z,4.30
2019-06-27T12:00:15.580Z,2.80
2019-06-27T12:02:19.995Z,2.90
2019-06-27T12:04:24.581Z,2.30
2019-06-27T12:06:29.440Z,2.33
2019-06-27T12:08:33.951Z,2.37
2019-06-27T12:10:39.181Z,3.27
2019-06-27T12:12:43.697Z,2.77
2019-06-27T12:14:48.487Z,2.20
2019-06-27T12:16:52.925Z,2.30
2019-06-27T12:18:57.844Z,2.83
2019-06-27T12:21:05.727Z,2.37
2019-06-27T12:23:08.507Z,2.20
2019-06-27T12:25:13.155Z,1.90
2019-06-27T12:27:17.641Z,2.80
2019-06-27T12:29:22.141Z,2.40
2019-06-27T12:31:26.737Z,2.30
2019-06-27T12:33:31.191Z,2.00
2019-06-27T12:35:35.619Z,1.73
2019-06-27T12:37:41.032Z,1.80
2019-06-27T12:39:46.878Z,1.77
2019-06-27T12:41:51.680Z,1.90
2019-06-27T12:43:56.201Z,1.77
2019-06-27T12:46:01.243Z,1.60
2019-06-27T12:48:07.673Z,1.93
2019-06-27T12:50:13.156Z,1.90
2019-06-27T12:52:18.038Z,2.13
2019-06-27T12:54:22.849Z,2.43
2019-06-27T12:56:27.732Z,2.10
2019-06-27T12:58:32.539Z,1.70
2019-06-27T13:00:37.573Z,2.10
2019-06-27T13:02:42.383Z,2.00
2019-06-27T13:04:47.109Z,2.40
2019-06-27T13:06:51.602Z,1.70
2019-06-27T13:08:57.085Z,2.60
2019-06-27T13:11:01.896Z,2.57
2019-06-27T13:13:07.089Z,1.70
2019-06-27T13:15:12.205Z,1.80
2019-06-27T13:17:16.618Z,2.35
2019-06-27T13:19:21.357Z,1.63
2019-06-27T13:21:26.449Z,1.60
2019-06-27T13:23:31.947Z,2.23
2019-06-27T13:28:39.947Z,2.07
2019-06-27T13:33:48.125Z,2.20
2019-06-27T13:35:53.200Z,1.70
2019-06-27T13:37:58.084Z,1.90
2019-06-27T13:40:04.742Z,1.73
2019-06-27T13:42:09.976Z,1.57
2019-06-27T13:44:14.904Z,2.20
2019-06-27T13:46:21.132Z,2.17
2019-06-27T13:48:25.951Z,2.50
2019-06-27T13:50:31.346Z,2.40
2019-06-27T13:52:35.796Z,1.90
2019-06-27T13:57:57.660Z,2.20
2019-06-27T14:03:17.034Z,2.43
2019-06-27T14:05:21.451Z,2.40
2019-06-27T14:07:27.234Z,1.87
2019-06-27T14:09:31.966Z,2.07
2019-06-27T14:14:59.832Z,2.27
2019-06-27T14:16:58.718Z,2.10
2019-06-27T14:19:04.729Z,2.00
2019-06-27T14:21:09.261Z,1.77
2019-06-27T14:23:14.400Z,1.47
2019-06-27T14:28:33.886Z,2.13
2019-06-27T14:33:53.909Z,1.57
2019-06-27T14:35:58.351Z,2.70
2019-06-27T14:38:05.108Z,1.50
2019-06-27T14:40:10.391Z,1.80
2019-06-27T14:42:14.955Z,2.10
2019-06-27T14:44:20.745Z,2.13
2019-06-27T14:46:25.618Z,2.00
2019-06-27T14:48:30.102Z,1.80
2019-06-27T14:50:35.506Z,2.10
2019-06-27T14:52:42.036Z,1.50
2019-06-27T14:54:47.462Z,2.70
2019-06-27T14:56:52.459Z,2.17
2019-06-27T14:58:57.454Z,1.97
2019-06-27T15:01:05.760Z,1.73
2019-06-27T15:03:08.286Z,2.10
2019-06-27T15:05:28.082Z,1.77
2019-06-27T15:07:20.496Z,2.30
2019-06-27T15:09:25.304Z,1.40
2019-06-27T15:11:30.317Z,1.77
2019-06-27T15:13:34.865Z,1.77
2019-06-27T15:15:39.663Z,1.67
2019-06-27T15:17:44.633Z,1.70
2019-06-27T15:19:49.542Z,1.57
2019-06-27T15:21:54.106Z,1.60
2019-06-27T15:26:15.216Z,1.90
2019-06-27T15:28:21.578Z,1.90
2019-06-27T15:30:26.389Z,1.97
2019-06-27T15:32:31.114Z,2.07
2019-06-27T15:34:35.726Z,1.90
2019-06-27T15:36:40.242Z,1.60
2019-06-27T15:38:44.877Z,1.90
2019-06-27T15:40:49.717Z,2.07
2019-06-27T15:42:54.852Z,1.60
2019-06-27T15:44:59.836Z,1.90
2019-06-27T15:47:04.706Z,1.80
2019-06-27T15:49:09.627Z,1.30
2019-06-27T15:51:14.609Z,1.30
2019-06-27T15:53:19.246Z,1.67
2019-06-27T15:55:24.184Z,2.13
2019-06-27T15:57:28.767Z,1.63
2019-06-27T15:59:34.204Z,1.90
2019-06-27T16:01:38.716Z,1.47
2019-06-27T16:03:43.504Z,2.00
2019-06-27T16:05:48.124Z,1.63
2019-06-27T16:07:54.048Z,2.33
2019-06-27T16:09:58.674Z,1.40
2019-06-27T16:12:03.265Z,1.70
2019-06-27T16:14:08.028Z,1.20
2019-06-27T16:16:12.994Z,1.90
2019-06-27T16:18:17.877Z,1.87
2019-06-27T16:20:22.527Z,1.57
2019-06-27T16:22:27.236Z,2.27
2019-06-27T16:24:32.249Z,1.67
2019-06-27T16:26:36.866Z,1.83
2019-06-27T16:28:43.760Z,2.00
2019-06-27T16:30:48.939Z,1.50
2019-06-27T16:32:53.990Z,1.43
2019-06-27T16:34:58.678Z,1.60
2019-06-27T16:37:03.294Z,1.90
2019-06-27T16:39:07.907Z,1.60
2019-06-27T16:41:13.533Z,1.80
2019-06-27T16:43:18.249Z,3.00
2019-06-27T16:45:22.897Z,2.63
2019-06-27T16:47:28.372Z,1.97
2019-06-27T16:49:33.291Z,2.20
2019-06-27T16:51:39.195Z,1.60
2019-06-27T16:53:43.748Z,1.80
2019-06-27T16:55:49.871Z,2.10
2019-06-27T16:58:00.570Z,1.70
2019-06-27T17:00:07.161Z,1.50
2019-06-27T17:02:11.719Z,1.37
2019-06-27T17:04:16.371Z,1.50
2019-06-27T17:06:20.957Z,2.40
2019-06-27T17:08:26.105Z,1.67
2019-06-27T17:10:30.720Z,1.35
2019-06-27T17:12:35.302Z,1.85
2019-06-27T17:14:40.225Z,1.50
2019-06-27T17:16:45.075Z,1.70
2019-06-27T17:18:49.657Z,2.00
2019-06-27T17:20:54.784Z,1.90
2019-06-27T17:22:59.762Z,1.70
2019-06-27T17:25:04.476Z,1.57
2019-06-27T17:27:09.521Z,2.20
2019-06-27T17:29:14.067Z,1.70
2019-06-27T17:31:18.674Z,1.90
2019-06-27T17:33:23.520Z,1.50
2019-06-27T17:35:28.285Z,1.77
2019-06-27T17:37:33.355Z,2.12
2019-06-27T17:39:37.973Z,1.62
2019-06-27T17:41:42.422Z,1.95
2019-06-27T17:43:47.024Z,1.80
2019-06-27T17:45:51.521Z,2.08
2019-06-27T17:47:56.560Z,1.65
2019-06-27T17:50:01.179Z,2.90
2019-06-27T17:52:06.059Z,2.63
2019-06-27T17:54:11.342Z,3.83
2019-06-27T17:56:16.559Z,1.97
2019-06-27T17:58:21.339Z,2.50
2019-06-27T18:00:26.329Z,2.20
2019-06-27T18:02:30.916Z,1.93
2019-06-27T18:04:35.629Z,1.67
2019-06-27T18:06:40.142Z,1.77
2019-06-27T18:08:44.970Z,2.00
2019-06-27T18:10:49.780Z,2.30
2019-06-27T18:12:54.271Z,2.40
2019-06-27T18:14:58.775Z,1.97
2019-06-27T18:17:03.324Z,2.37
2019-06-27T18:19:08.012Z,1.80
2019-06-27T18:21:12.894Z,2.30
2019-06-27T18:23:18.001Z,3.17
2019-06-27T18:25:24.399Z,1.77
2019-06-27T18:27:29.052Z,2.20
2019-06-27T18:29:33.628Z,2.17
2019-06-27T18:31:39.147Z,1.83
2019-06-27T18:33:44.030Z,1.73
2019-06-27T18:35:48.546Z,2.20
2019-06-27T18:37:53.216Z,2.20
2019-06-27T18:39:58.043Z,2.03
2019-06-27T18:42:02.701Z,2.00
2019-06-27T18:44:07.636Z,1.73
2019-06-27T18:46:12.230Z,2.20
2019-06-27T18:48:17.745Z,2.07
2019-06-27T18:50:22.534Z,2.10
2019-06-27T18:52:27.406Z,1.43
2019-06-27T18:54:32.319Z,1.70
2019-06-27T18:56:36.843Z,1.63
2019-06-27T18:58:41.406Z,1.60
2019-06-27T19:00:46.409Z,1.63
2019-06-27T19:02:51.153Z,1.77
2019-06-27T19:04:56.000Z,1.40
2019-06-27T19:07:01.997Z,1.80
2019-06-27T19:09:06.983Z,1.70
2019-06-27T19:11:11.789Z,1.43
2019-06-27T19:13:16.857Z,1.70
2019-06-27T19:15:21.925Z,2.00
2019-06-27T19:17:26.896Z,1.80
2019-06-27T19:19:33.754Z,1.80
2019-06-27T19:21:45.552Z,1.40
2019-06-27T19:24:01.488Z,1.60
2019-06-27T19:26:08.915Z,1.57
2019-06-27T19:28:13.820Z,1.07
2019-06-27T19:30:18.952Z,1.73
2019-06-27T19:32:24.499Z,1.70
2019-06-27T19:34:29.411Z,1.30
2019-06-27T19:36:34.390Z,2.23
2019-06-27T19:38:38.952Z,1.67
2019-06-27T19:40:43.444Z,1.77
2019-06-27T19:42:48.273Z,2.10
2019-06-27T19:44:52.725Z,1.90
2019-06-27T19:46:57.266Z,1.40
2019-06-27T19:49:04.275Z,1.77
2019-06-27T19:51:08.753Z,2.00
2019-06-27T19:53:13.213Z,2.70
2019-06-27T19:55:18.022Z,2.17
2019-06-27T19:57:22.955Z,2.20
2019-06-27T19:59:27.748Z,1.30
2019-06-27T20:01:32.874Z,2.03
2019-06-27T20:03:38.717Z,1.90
2019-06-27T20:05:44.668Z,2.53
2019-06-27T20:07:51.220Z,2.13
2019-06-27T20:09:56.556Z,1.93
2019-06-27T20:12:00.977Z,2.00
2019-06-27T20:14:06.402Z,1.60
2019-06-27T20:16:15.009Z,2.50
2019-06-27T20:18:20.326Z,1.90
2019-06-27T20:20:31.806Z,1.90
2019-06-27T20:22:41.216Z,1.90
2019-06-27T20:24:45.847Z,2.73
2019-06-27T20:26:50.833Z,1.90
2019-06-27T20:28:56.298Z,1.60
2019-06-27T20:31:02.968Z,1.80
2019-06-27T20:33:07.857Z,1.67
2019-06-27T20:35:13.189Z,1.63
2019-06-27T20:37:20.794Z,1.50
2019-06-27T20:39:26.693Z,1.97
2019-06-27T20:41:31.869Z,2.00
2019-06-27T20:43:37.949Z,1.77
2019-06-27T20:45:42.929Z,1.80
2019-06-27T20:47:50.323Z,1.80
2019-06-27T20:49:55.889Z,1.90
2019-06-27T20:52:02.861Z,1.70
2019-06-27T20:54:07.321Z,2.20
2019-06-27T20:56:11.959Z,1.67
2019-06-27T20:58:16.808Z,2.37
2019-06-27T21:00:22.792Z,2.57
2019-06-27T21:02:28.716Z,2.07
2019-06-27T21:04:34.665Z,1.93
2019-06-27T21:06:40.790Z,2.00
2019-06-27T21:08:51.184Z,1.47
2019-06-27T21:10:51.633Z,1.50
2019-06-27T21:12:56.152Z,1.80
2019-06-27T21:15:00.717Z,1.90
2019-06-27T21:17:06.348Z,1.43
2019-06-27T21:19:10.965Z,1.57
2019-06-27T21:21:15.883Z,1.57
2019-06-27T21:23:21.343Z,1.53
2019-06-27T21:25:26.100Z,1.97
2019-06-27T21:27:31.384Z,1.50
2019-06-27T21:29:36.786Z,2.20
2019-06-27T21:31:43.363Z,1.30
2019-06-27T21:33:48.980Z,1.70
2019-06-27T21:35:56.178Z,1.30
2019-06-27T21:38:01.368Z,1.30
2019-06-27T21:40:06.226Z,1.80
2019-06-27T21:42:10.683Z,1.70
2019-06-27T21:44:15.147Z,1.47
2019-06-27T21:46:19.703Z,1.43
2019-06-27T21:48:24.159Z,2.13
2019-06-27T21:50:29.492Z,1.60
2019-06-27T21:52:34.386Z,1.80
2019-06-27T21:54:38.924Z,1.40
2019-06-27T21:56:43.781Z,1.83
2019-06-27T21:58:48.546Z,1.47
2019-06-27T22:00:53.511Z,1.83
2019-06-27T22:02:59.339Z,1.70
2019-06-27T22:05:04.275Z,1.60
2019-06-27T22:07:08.956Z,2.00
2019-06-27T22:09:23.997Z,2.20
2019-06-27T22:11:20.103Z,1.57
2019-06-27T22:13:40.045Z,1.80
2019-06-27T22:15:46.847Z,1.77
2019-06-27T22:17:51.361Z,2.30
2019-06-27T22:19:56.225Z,1.60
2019-06-27T22:22:00.971Z,1.80
2019-06-27T22:24:06.156Z,1.60
2019-06-27T22:26:10.936Z,1.33
2019-06-27T22:28:15.456Z,1.90
2019-06-27T22:30:21.009Z,2.07
2019-06-27T22:32:26.042Z,2.13
2019-06-27T22:34:30.486Z,1.90
2019-06-27T22:36:35.983Z,2.07
2019-06-27T22:38:57.739Z,1.83
2019-06-27T22:41:20.155Z,2.00
2019-06-27T22:43:41.900Z,2.37
2019-06-27T22:46:03.957Z,2.13
2019-06-27T22:48:13.047Z,1.93
2019-06-27T22:50:36.875Z,2.67
2019-06-27T22:53:13.159Z,2.47
2019-06-27T22:55:21.432Z,2.60
2019-06-27T22:57:26.321Z,2.93
2019-06-27T22:59:30.855Z,2.30
2019-06-27T23:01:35.283Z,2.47
2019-06-27T23:03:39.697Z,3.67
2019-06-27T23:05:44.779Z,2.30
2019-06-27T23:07:50.027Z,2.70
2019-06-27T23:09:57.297Z,2.03
2019-06-27T23:12:01.807Z,2.80
2019-06-27T23:14:06.187Z,2.00
2019-06-27T23:16:11.213Z,2.60
2019-06-27T23:18:15.791Z,2.97
2019-06-27T23:20:20.656Z,2.50
2019-06-27T23:22:25.587Z,2.67
2019-06-27T23:24:30.070Z,2.67
2019-06-27T23:26:35.290Z,2.90
2019-06-27T23:28:40.069Z,2.40
2019-06-27T23:30:44.538Z,2.17
2019-06-27T23:32:48.908Z,4.07
2019-06-27T23:34:53.692Z,2.33
2019-06-27T23:36:58.654Z,2.83
2019-06-27T23:39:03.341Z,2.70
2019-06-27T23:41:08.120Z,2.43
2019-06-27T23:43:12.548Z,2.50
2019-06-27T23:45:16.898Z,3.23
2019-06-27T23:47:21.743Z,3.00
2019-06-27T23:49:26.431Z,2.80
2019-06-27T23:51:31.823Z,2.70
2019-06-27T23:53:36.362Z,2.87
2019-06-27T23:55:40.857Z,2.80
2019-06-27T23:57:45.711Z,2.80
2019-06-27T23:59:50.568Z,2.63
